sensor_id;sensor_type;location;lat;lon;timestamp;pressure;altitude;pressure_sealevel;temperature;humidity
34124;BME280;13153;52.316;21.166;2023-08-24T00:01:17;100565.03;;;24.69;47.70
34124;BME280;13153;52.316;21.166;2023-08-24T00:03:46;100568.72;;;24.66;47.67
34124;BME280;13153;52.316;21.166;2023-08-24T00:06:12;100565.97;;;24.68;47.98
34124;BME280;13153;52.316;21.166;2023-08-24T00:08:38;100571.34;;;24.68;47.66
34124;BME280;13153;52.316;21.166;2023-08-24T00:11:04;100570.38;;;24.71;47.63
34124;BME280;13153;52.316;21.166;2023-08-24T00:13:31;100574.00;;;24.69;48.01
34124;BME280;13153;52.316;21.166;2023-08-24T00:15:57;100569.66;;;24.64;47.81
34124;BME280;13153;52.316;21.166;2023-08-24T00:18:24;100568.84;;;24.62;47.82
34124;BME280;13153;52.316;21.166;2023-08-24T00:20:50;100566.19;;;24.60;48.16
34124;BME280;13153;52.316;21.166;2023-08-24T00:23:17;100569.72;;;24.62;48.25
34124;BME280;13153;52.316;21.166;2023-08-24T00:25:42;100564.38;;;24.61;48.16
34124;BME280;13153;52.316;21.166;2023-08-24T00:28:08;100566.13;;;24.62;48.08
34124;BME280;13153;52.316;21.166;2023-08-24T00:30:34;100564.38;;;24.61;48.15
34124;BME280;13153;52.316;21.166;2023-08-24T00:33:00;100564.38;;;24.61;48.05
34124;BME280;13153;52.316;21.166;2023-08-24T00:35:26;100564.47;;;24.58;48.03
34124;BME280;13153;52.316;21.166;2023-08-24T00:37:52;100560.13;;;24.52;48.31
34124;BME280;13153;52.316;21.166;2023-08-24T00:40:18;100554.88;;;24.48;48.44
34124;BME280;13153;52.316;21.166;2023-08-24T00:42:45;100561.22;;;24.45;48.78
34124;BME280;13153;52.316;21.166;2023-08-24T00:45:14;100555.13;;;24.39;48.69
34124;BME280;13153;52.316;21.166;2023-08-24T00:47:46;100554.44;;;24.30;48.81
34124;BME280;13153;52.316;21.166;2023-08-24T00:50:13;100547.47;;;24.23;48.98
34124;BME280;13153;52.316;21.166;2023-08-24T00:52:41;100549.41;;;24.18;48.98
34124;BME280;13153;52.316;21.166;2023-08-24T00:55:08;100553.94;;;24.16;49.28
34124;BME280;13153;52.316;21.166;2023-08-24T00:57:37;100552.09;;;24.18;49.29
34124;BME280;13153;52.316;21.166;2023-08-24T01:00:05;100547.72;;;24.14;49.45
34124;BME280;13153;52.316;21.166;2023-08-24T01:02:33;100555.75;;;24.16;49.33
34124;BME280;13153;52.316;21.166;2023-08-24T01:04:59;100560.31;;;24.12;49.35
34124;BME280;13153;52.316;21.166;2023-08-24T01:07:25;100553.19;;;24.11;49.14
34124;BME280;13153;52.316;21.166;2023-08-24T01:09:53;100553.19;;;24.11;49.42
34124;BME280;13153;52.316;21.166;2023-08-24T01:15:29;100559.56;;;24.07;49.63
34124;BME280;13153;52.316;21.166;2023-08-24T01:18:04;100559.63;;;24.04;49.61
34124;BME280;13153;52.316;21.166;2023-08-24T01:20:33;100557.97;;;23.98;49.83
34124;BME280;13153;52.316;21.166;2023-08-24T01:26:03;100558.03;;;23.97;50.09
34124;BME280;13153;52.316;21.166;2023-08-24T01:28:30;100553.50;;;23.99;49.92
34124;BME280;13153;52.316;21.166;2023-08-24T01:30:56;100546.34;;;23.98;49.88
34124;BME280;13153;52.316;21.166;2023-08-24T01:33:22;100548.97;;;24.01;49.81
34124;BME280;13153;52.316;21.166;2023-08-24T01:35:48;100554.22;;;24.06;49.64
34124;BME280;13153;52.316;21.166;2023-08-24T01:38:14;100548.84;;;24.06;49.86
34124;BME280;13153;52.316;21.166;2023-08-24T01:43:50;100551.66;;;24.01;49.86
34124;BME280;13153;52.316;21.166;2023-08-24T01:46:21;100547.06;;;24.04;49.95
34124;BME280;13153;52.316;21.166;2023-08-24T01:48:48;100548.03;;;24.02;50.19
34124;BME280;13153;52.316;21.166;2023-08-24T01:51:15;100546.44;;;23.95;50.23
34124;BME280;13153;52.316;21.166;2023-08-24T01:53:42;100545.63;;;23.91;50.51
34124;BME280;13153;52.316;21.166;2023-08-24T01:56:15;100548.34;;;23.90;50.35
34124;BME280;13153;52.316;21.166;2023-08-24T01:58:41;100552.81;;;23.91;50.33
34124;BME280;13153;52.316;21.166;2023-08-24T02:01:08;100547.53;;;23.86;50.48
34124;BME280;13153;52.316;21.166;2023-08-24T02:03:34;100545.66;;;23.90;50.28
34124;BME280;13153;52.316;21.166;2023-08-24T02:06:00;100547.59;;;23.85;50.72
34124;BME280;13153;52.316;21.166;2023-08-24T02:08:26;100540.41;;;23.85;50.57
34124;BME280;13153;52.316;21.166;2023-08-24T02:10:51;100532.38;;;23.84;50.42
34124;BME280;13153;52.316;21.166;2023-08-24T02:13:17;100536.91;;;23.82;50.79
34124;BME280;13153;52.316;21.166;2023-08-24T02:15:43;100528.00;;;23.80;50.71
34124;BME280;13153;52.316;21.166;2023-08-24T02:18:09;100537.03;;;23.77;50.79
34124;BME280;13153;52.316;21.166;2023-08-24T02:20:38;100530.75;;;23.77;50.59
34124;BME280;13153;52.316;21.166;2023-08-24T02:23:05;100531.69;;;23.76;50.50
34124;BME280;13153;52.316;21.166;2023-08-24T02:25:31;100528.13;;;23.75;50.61
34124;BME280;13153;52.316;21.166;2023-08-24T02:27:57;100523.69;;;23.73;50.45
34124;BME280;13153;52.316;21.166;2023-08-24T02:30:23;100528.25;;;23.69;50.83
34124;BME280;13153;52.316;21.166;2023-08-24T02:32:50;100528.38;;;23.66;50.90
34124;BME280;13153;52.316;21.166;2023-08-24T02:35:16;100530.19;;;23.65;50.77
34124;BME280;13153;52.316;21.166;2023-08-24T02:37:43;100524.84;;;23.64;50.68
34124;BME280;13153;52.316;21.166;2023-08-24T02:40:10;100530.25;;;23.62;50.70
34124;BME280;13153;52.316;21.166;2023-08-24T02:42:36;100532.94;;;23.62;50.85
34124;BME280;13153;52.316;21.166;2023-08-24T02:45:02;100530.28;;;23.61;50.89
34124;BME280;13153;52.316;21.166;2023-08-24T02:47:28;100534.78;;;23.60;50.84
34124;BME280;13153;52.316;21.166;2023-08-24T02:49:53;100532.13;;;23.59;50.92
34124;BME280;13153;52.316;21.166;2023-08-24T02:52:19;100534.81;;;23.59;50.82
34124;BME280;13153;52.316;21.166;2023-08-24T02:54:45;100534.84;;;23.57;51.20
34124;BME280;13153;52.316;21.166;2023-08-24T02:57:11;100541.09;;;23.58;51.23
34124;BME280;13153;52.316;21.166;2023-08-24T02:59:36;100533.06;;;23.58;51.02
34124;BME280;13153;52.316;21.166;2023-08-24T03:02:02;100533.94;;;23.58;51.02
34124;BME280;13153;52.316;21.166;2023-08-24T03:04:28;100531.28;;;23.57;51.31
34124;BME280;13153;52.316;21.166;2023-08-24T03:06:54;100529.56;;;23.54;51.47
34124;BME280;13153;52.316;21.166;2023-08-24T03:09:19;100533.16;;;23.53;50.92
34124;BME280;13153;52.316;21.166;2023-08-24T03:11:45;100526.94;;;23.50;51.29
34124;BME280;13153;52.316;21.166;2023-08-24T03:14:11;100529.75;;;23.45;51.33
34124;BME280;13153;52.316;21.166;2023-08-24T03:16:38;100526.22;;;23.43;51.45
34124;BME280;13153;52.316;21.166;2023-08-24T03:19:04;100528.09;;;23.39;51.63
34124;BME280;13153;52.316;21.166;2023-08-24T03:21:30;100517.44;;;23.35;51.47
34124;BME280;13153;52.316;21.166;2023-08-24T03:23:56;100519.22;;;23.36;51.60
34124;BME280;13153;52.316;21.166;2023-08-24T03:26:22;100530.84;;;23.36;51.80
34124;BME280;13153;52.316;21.166;2023-08-24T03:28:49;100525.44;;;23.38;51.76
34124;BME280;13153;52.316;21.166;2023-08-24T03:31:16;100526.28;;;23.40;51.47
34124;BME280;13153;52.316;21.166;2023-08-24T03:33:42;100522.72;;;23.39;51.60
34124;BME280;13153;52.316;21.166;2023-08-24T03:36:07;100527.19;;;23.39;51.30
34124;BME280;13153;52.316;21.166;2023-08-24T03:38:33;100523.69;;;23.35;51.35
34124;BME280;13153;52.316;21.166;2023-08-24T03:41:03;100518.41;;;23.32;51.62
34124;BME280;13153;52.316;21.166;2023-08-24T03:43:35;100511.31;;;23.30;51.68
34124;BME280;13153;52.316;21.166;2023-08-24T03:46:05;100511.22;;;23.33;51.62
34124;BME280;13153;52.316;21.166;2023-08-24T03:48:32;100517.38;;;23.38;51.28
34124;BME280;13153;52.316;21.166;2023-08-24T03:50:58;100515.47;;;23.43;51.31
34124;BME280;13153;52.316;21.166;2023-08-24T03:53:24;100519.81;;;23.49;51.19
34124;BME280;13153;52.316;21.166;2023-08-24T03:55:54;100525.06;;;23.55;51.04
34124;BME280;13153;52.316;21.166;2023-08-24T03:58:20;100523.13;;;23.61;50.80
34124;BME280;13153;52.316;21.166;2023-08-24T04:00:46;100523.88;;;23.66;50.68
34124;BME280;13153;52.316;21.166;2023-08-24T04:03:13;100516.59;;;23.70;50.36
34124;BME280;13153;52.316;21.166;2023-08-24T04:05:39;100525.28;;;23.81;50.34
34124;BME280;13153;52.316;21.166;2023-08-24T04:08:05;100532.09;;;23.94;49.87
34124;BME280;13153;52.316;21.166;2023-08-24T04:10:31;100535.31;;;24.09;49.63
34124;BME280;13153;52.316;21.166;2023-08-24T04:12:57;100539.31;;;24.26;49.52
34124;BME280;13153;52.316;21.166;2023-08-24T04:15:22;100541.44;;;24.48;48.82
34124;BME280;13153;52.316;21.166;2023-08-24T04:17:49;100550.75;;;24.67;48.57
34124;BME280;13153;52.316;21.166;2023-08-24T04:20:15;100548.34;;;24.87;48.65
34124;BME280;13153;52.316;21.166;2023-08-24T04:22:42;100546.78;;;25.10;48.01
34124;BME280;13153;52.316;21.166;2023-08-24T04:25:08;100558.59;;;25.35;47.48
34124;BME280;13153;52.316;21.166;2023-08-24T04:27:34;100550.72;;;25.55;46.88
34124;BME280;13153;52.316;21.166;2023-08-24T04:30:00;100544.66;;;25.77;46.42
34124;BME280;13153;52.316;21.166;2023-08-24T04:32:27;100549.44;;;25.95;45.87
34124;BME280;13153;52.316;21.166;2023-08-24T04:34:53;100548.84;;;26.12;45.72
34124;BME280;13153;52.316;21.166;2023-08-24T04:37:19;100540.16;;;26.28;45.42
34124;BME280;13153;52.316;21.166;2023-08-24T04:39:45;100542.22;;;26.47;44.78
34124;BME280;13153;52.316;21.166;2023-08-24T04:42:11;100540.47;;;26.69;44.40
34124;BME280;13153;52.316;21.166;2023-08-24T04:44:37;100550.34;;;26.93;43.73
34124;BME280;13153;52.316;21.166;2023-08-24T04:47:03;100543.19;;;27.16;43.03
34124;BME280;13153;52.316;21.166;2023-08-24T04:49:30;100544.84;;;27.42;42.64
34124;BME280;13153;52.316;21.166;2023-08-24T04:51:56;100548.44;;;27.66;42.01
34124;BME280;13153;52.316;21.166;2023-08-24T04:54:22;100556.31;;;27.92;41.31
34124;BME280;13153;52.316;21.166;2023-08-24T04:56:47;100536.25;;;28.18;41.16
34124;BME280;13153;52.316;21.166;2023-08-24T04:59:13;100544.13;;;28.44;40.53
34124;BME280;13153;52.316;21.166;2023-08-24T05:01:39;100551.06;;;28.70;40.12
34124;BME280;13153;52.316;21.166;2023-08-24T05:04:05;100540.88;;;28.96;39.67
34124;BME280;13153;52.316;21.166;2023-08-24T05:06:31;100545.72;;;29.27;39.57
34124;BME280;13153;52.316;21.166;2023-08-24T05:08:57;100550.06;;;29.67;38.39
34124;BME280;13153;52.316;21.166;2023-08-24T05:11:26;100548.25;;;30.03;37.77
34124;BME280;13153;52.316;21.166;2023-08-24T05:13:55;100539.94;;;30.41;37.29
34124;BME280;13153;52.316;21.166;2023-08-24T05:16:21;100554.09;;;30.80;37.11
34124;BME280;13153;52.316;21.166;2023-08-24T05:18:47;100556.19;;;31.24;36.08
34124;BME280;13153;52.316;21.166;2023-08-24T05:21:13;100558.41;;;31.65;35.27
34124;BME280;13153;52.316;21.166;2023-08-24T05:23:39;100560.47;;;32.07;34.87
34124;BME280;13153;52.316;21.166;2023-08-24T05:26:05;100557.06;;;32.47;34.10
34124;BME280;13153;52.316;21.166;2023-08-24T05:28:31;100561.16;;;32.85;33.26
34124;BME280;13153;52.316;21.166;2023-08-24T05:30:58;100563.94;;;33.26;33.51
34124;BME280;13153;52.316;21.166;2023-08-24T05:33:26;100569.00;;;33.73;32.28
34124;BME280;13153;52.316;21.166;2023-08-24T05:35:52;100561.22;;;34.21;31.70
34124;BME280;13153;52.316;21.166;2023-08-24T05:38:18;100562.38;;;34.69;30.43
34124;BME280;13153;52.316;21.166;2023-08-24T05:40:48;100559.88;;;35.04;31.15
34124;BME280;13153;52.316;21.166;2023-08-24T05:43:14;100563.50;;;35.54;30.15
34124;BME280;13153;52.316;21.166;2023-08-24T05:45:40;100563.41;;;36.03;29.62
34124;BME280;13153;52.316;21.166;2023-08-24T05:48:09;100566.50;;;36.68;28.31
34124;BME280;13153;52.316;21.166;2023-08-24T05:50:35;100566.72;;;37.23;27.39
34124;BME280;13153;52.316;21.166;2023-08-24T05:53:03;100577.72;;;37.66;26.80
34124;BME280;13153;52.316;21.166;2023-08-24T05:55:29;100575.88;;;38.10;26.87
34124;BME280;13153;52.316;21.166;2023-08-24T05:57:55;100579.97;;;38.47;26.41
34124;BME280;13153;52.316;21.166;2023-08-24T06:00:21;100585.31;;;38.90;25.33
34124;BME280;13153;52.316;21.166;2023-08-24T06:02:48;100579.44;;;39.35;24.55
34124;BME280;13153;52.316;21.166;2023-08-24T06:05:13;100582.63;;;39.71;24.47
34124;BME280;13153;52.316;21.166;2023-08-24T06:07:39;100577.44;;;39.97;24.25
34124;BME280;13153;52.316;21.166;2023-08-24T06:10:06;100578.47;;;40.24;23.15
34124;BME280;13153;52.316;21.166;2023-08-24T06:12:32;100572.38;;;40.31;23.30
34124;BME280;13153;52.316;21.166;2023-08-24T06:14:58;100573.00;;;40.44;22.24
34124;BME280;13153;52.316;21.166;2023-08-24T06:17:24;100569.19;;;40.45;22.89
34124;BME280;13153;52.316;21.166;2023-08-24T06:19:49;100568.88;;;40.48;22.93
34124;BME280;13153;52.316;21.166;2023-08-24T06:22:15;100566.91;;;40.40;22.64
34124;BME280;13153;52.316;21.166;2023-08-24T06:24:41;100576.75;;;40.23;22.13
34124;BME280;13153;52.316;21.166;2023-08-24T06:27:07;100572.69;;;40.18;23.27
34124;BME280;13153;52.316;21.166;2023-08-24T06:29:32;100574.56;;;40.08;23.41
34124;BME280;13153;52.316;21.166;2023-08-24T06:31:58;100571.22;;;40.04;22.85
34124;BME280;13153;52.316;21.166;2023-08-24T06:34:24;100569.75;;;39.90;22.89
34124;BME280;13153;52.316;21.166;2023-08-24T06:36:50;100563.81;;;39.85;22.81
34124;BME280;13153;52.316;21.166;2023-08-24T06:39:16;100565.50;;;39.86;23.48
34124;BME280;13153;52.316;21.166;2023-08-24T06:41:42;100569.75;;;39.90;23.38
34124;BME280;13153;52.316;21.166;2023-08-24T06:44:08;100566.84;;;39.92;23.33
34124;BME280;13153;52.316;21.166;2023-08-24T06:46:34;100570.50;;;40.02;23.32
34124;BME280;13153;52.316;21.166;2023-08-24T06:49:00;100564.69;;;40.15;22.70
34124;BME280;13153;52.316;21.166;2023-08-24T06:51:27;100563.53;;;40.17;22.42
34124;BME280;13153;52.316;21.166;2023-08-24T06:53:53;100566.88;;;40.21;22.23
34124;BME280;13153;52.316;21.166;2023-08-24T06:56:19;100564.84;;;40.33;22.54
34124;BME280;13153;52.316;21.166;2023-08-24T06:58:47;100569.75;;;40.48;22.10
34124;BME280;13153;52.316;21.166;2023-08-24T07:01:13;100566.53;;;40.72;22.37
34124;BME280;13153;52.316;21.166;2023-08-24T07:03:39;100574.66;;;40.74;21.60
34124;BME280;13153;52.316;21.166;2023-08-24T07:06:06;100574.81;;;40.72;21.81
34124;BME280;13153;52.316;21.166;2023-08-24T07:08:34;100575.50;;;40.94;21.29
34124;BME280;13153;52.316;21.166;2023-08-24T07:11:01;100583.84;;;41.11;22.21
34124;BME280;13153;52.316;21.166;2023-08-24T07:13:27;100584.13;;;41.08;21.81
34124;BME280;13153;52.316;21.166;2023-08-24T07:15:53;100580.16;;;40.93;21.77
34124;BME280;13153;52.316;21.166;2023-08-24T07:18:21;100580.03;;;40.66;21.70
34124;BME280;13153;52.316;21.166;2023-08-24T07:20:47;100587.31;;;40.57;22.05
34124;BME280;13153;52.316;21.166;2023-08-24T07:23:13;100579.47;;;40.52;22.04
34124;BME280;13153;52.316;21.166;2023-08-24T07:25:39;100582.97;;;40.54;21.96
34124;BME280;13153;52.316;21.166;2023-08-24T07:28:05;100579.91;;;40.48;22.38
34124;BME280;13153;52.316;21.166;2023-08-24T07:30:31;100585.47;;;40.38;22.04
34124;BME280;13153;52.316;21.166;2023-08-24T07:32:57;100575.00;;;40.13;22.80
34124;BME280;13153;52.316;21.166;2023-08-24T07:35:23;100578.44;;;39.86;22.39
34124;BME280;13153;52.316;21.166;2023-08-24T07:37:52;100580.28;;;39.56;23.02
34124;BME280;13153;52.316;21.166;2023-08-24T07:40:18;100574.34;;;39.30;23.62
34124;BME280;13153;52.316;21.166;2023-08-24T07:42:50;100579.13;;;38.98;23.70
34124;BME280;13153;52.316;21.166;2023-08-24T07:45:18;100575.06;;;38.72;24.33
34124;BME280;13153;52.316;21.166;2023-08-24T07:47:44;100569.97;;;38.46;24.69
34124;BME280;13153;52.316;21.166;2023-08-24T07:50:11;100567.19;;;38.25;24.37
34124;BME280;13153;52.316;21.166;2023-08-24T07:52:38;100570.16;;;38.02;24.92
34124;BME280;13153;52.316;21.166;2023-08-24T07:55:05;100565.50;;;37.81;24.85
34124;BME280;13153;52.316;21.166;2023-08-24T07:57:34;100569.50;;;37.66;25.16
34124;BME280;13153;52.316;21.166;2023-08-24T08:00:00;100574.16;;;37.54;25.24
34124;BME280;13153;52.316;21.166;2023-08-24T08:02:26;100572.06;;;37.35;25.32
34124;BME280;13153;52.316;21.166;2023-08-24T08:04:57;100574.81;;;37.24;25.82
34124;BME280;13153;52.316;21.166;2023-08-24T08:07:26;100571.03;;;37.14;26.24
34124;BME280;13153;52.316;21.166;2023-08-24T08:09:52;100572.31;;;36.88;26.41
34124;BME280;13153;52.316;21.166;2023-08-24T08:12:18;100565.75;;;36.66;26.26
34124;BME280;13153;52.316;21.166;2023-08-24T08:14:43;100560.59;;;36.51;26.89
34124;BME280;13153;52.316;21.166;2023-08-24T08:17:09;100564.94;;;36.42;26.57
34124;BME280;13153;52.316;21.166;2023-08-24T08:19:35;100565.69;;;36.33;26.39
34124;BME280;13153;52.316;21.166;2023-08-24T08:22:04;100566.84;;;36.18;26.96
34124;BME280;13153;52.316;21.166;2023-08-24T08:24:30;100558.56;;;36.06;26.66
34124;BME280;13153;52.316;21.166;2023-08-24T08:26:56;100560.50;;;35.93;27.52
34124;BME280;13153;52.316;21.166;2023-08-24T08:29:22;100561.59;;;35.80;27.57
34124;BME280;13153;52.316;21.166;2023-08-24T08:31:48;100555.38;;;35.65;27.68
34124;BME280;13153;52.316;21.166;2023-08-24T08:34:14;100562.53;;;35.55;27.29
34124;BME280;13153;52.316;21.166;2023-08-24T08:36:39;100561.88;;;35.51;28.09
34124;BME280;13153;52.316;21.166;2023-08-24T08:39:05;100559.03;;;35.53;27.39
34124;BME280;13153;52.316;21.166;2023-08-24T08:41:42;100560.31;;;35.60;27.06
34124;BME280;13153;52.316;21.166;2023-08-24T08:44:13;100552.97;;;35.60;27.17
34124;BME280;13153;52.316;21.166;2023-08-24T08:46:41;100553.31;;;35.56;27.47
34124;BME280;13153;52.316;21.166;2023-08-24T08:49:08;100555.28;;;35.54;26.94
34124;BME280;13153;52.316;21.166;2023-08-24T08:51:38;100555.81;;;35.59;27.67
34124;BME280;13153;52.316;21.166;2023-08-24T08:54:05;100557.47;;;35.61;28.00
34124;BME280;13153;52.316;21.166;2023-08-24T08:56:32;100547.91;;;35.67;26.91
34124;BME280;13153;52.316;21.166;2023-08-24T08:59:00;100549.38;;;35.60;27.35
34124;BME280;13153;52.316;21.166;2023-08-24T09:01:28;100546.09;;;35.55;27.28
34124;BME280;13153;52.316;21.166;2023-08-24T09:03:54;100552.47;;;35.42;26.62
34124;BME280;13153;52.316;21.166;2023-08-24T09:06:22;100548.09;;;35.27;27.95
34124;BME280;13153;52.316;21.166;2023-08-24T09:08:49;100554.41;;;35.17;27.27
34124;BME280;13153;52.316;21.166;2023-08-24T09:11:17;100552.34;;;35.07;27.70
34124;BME280;13153;52.316;21.166;2023-08-24T09:13:46;100550.16;;;35.00;27.10
34124;BME280;13153;52.316;21.166;2023-08-24T09:16:12;100547.75;;;34.95;27.34
34124;BME280;13153;52.316;21.166;2023-08-24T09:18:46;100550.06;;;34.89;28.32
34124;BME280;13153;52.316;21.166;2023-08-24T09:21:15;100547.53;;;34.86;28.07
34124;BME280;13153;52.316;21.166;2023-08-24T09:23:51;100545.22;;;34.80;27.96
34124;BME280;13153;52.316;21.166;2023-08-24T09:26:30;100542.16;;;34.71;29.11
34124;BME280;13153;52.316;21.166;2023-08-24T09:29:05;100549.78;;;34.66;28.64
34124;BME280;13153;52.316;21.166;2023-08-24T09:31:37;100553.88;;;34.61;29.11
34124;BME280;13153;52.316;21.166;2023-08-24T09:34:04;100544.91;;;34.59;28.10
34124;BME280;13153;52.316;21.166;2023-08-24T09:36:32;100548.84;;;34.55;29.86
34124;BME280;13153;52.316;21.166;2023-08-24T09:39:03;100543.69;;;34.50;29.84
34124;BME280;13153;52.316;21.166;2023-08-24T09:41:46;100540.97;;;34.50;29.30
34124;BME280;13153;52.316;21.166;2023-08-24T09:44:13;100543.69;;;34.50;28.91
34124;BME280;13153;52.316;21.166;2023-08-24T09:46:39;100542.72;;;34.51;28.72
34124;BME280;13153;52.316;21.166;2023-08-24T09:49:08;100542.94;;;34.48;28.39
34124;BME280;13153;52.316;21.166;2023-08-24T09:51:35;100534.19;;;34.43;28.61
34124;BME280;13153;52.316;21.166;2023-08-24T09:54:10;100543.47;;;34.40;28.42
34124;BME280;13153;52.316;21.166;2023-08-24T09:56:39;100537.84;;;34.29;28.89
34124;BME280;13153;52.316;21.166;2023-08-24T09:59:12;100537.81;;;34.17;29.27
34124;BME280;13153;52.316;21.166;2023-08-24T10:01:43;100536.28;;;34.12;30.50
34124;BME280;13153;52.316;21.166;2023-08-24T10:04:12;100528.53;;;34.06;30.94
34124;BME280;13153;52.316;21.166;2023-08-24T10:06:39;100530.28;;;34.07;30.30
34124;BME280;13153;52.316;21.166;2023-08-24T10:09:16;100526.22;;;34.00;30.11
34124;BME280;13153;52.316;21.166;2023-08-24T10:11:53;100531.69;;;34.00;29.08
34124;BME280;13153;52.316;21.166;2023-08-24T10:16:50;100524.56;;;34.10;29.81
34124;BME280;13153;52.316;21.166;2023-08-24T10:19:17;100521.94;;;34.09;29.32
34124;BME280;13153;52.316;21.166;2023-08-24T10:21:45;100517.06;;;34.01;29.55
34124;BME280;13153;52.316;21.166;2023-08-24T10:24:13;100511.44;;;33.90;29.04
34124;BME280;13153;52.316;21.166;2023-08-24T10:26:40;100519.44;;;33.93;29.34
34124;BME280;13153;52.316;21.166;2023-08-24T10:29:07;100519.31;;;33.95;29.61
34124;BME280;13153;52.316;21.166;2023-08-24T10:31:35;100522.94;;;33.95;30.04
34124;BME280;13153;52.316;21.166;2023-08-24T10:34:05;100526.63;;;33.94;29.92
34124;BME280;13153;52.316;21.166;2023-08-24T10:36:31;100528.38;;;33.95;30.19
34124;BME280;13153;52.316;21.166;2023-08-24T10:39:03;100513.75;;;33.96;30.17
34124;BME280;13153;52.316;21.166;2023-08-24T10:41:50;100507.09;;;34.00;30.45
34124;BME280;13153;52.316;21.166;2023-08-24T10:44:44;100517.06;;;34.01;29.48
34124;BME280;13153;52.316;21.166;2023-08-24T10:47:20;100514.78;;;34.08;29.89
34124;BME280;13153;52.316;21.166;2023-08-24T10:52:32;100512.59;;;34.26;29.50
34124;BME280;13153;52.316;21.166;2023-08-24T10:55:02;100507.44;;;34.21;28.30
34124;BME280;13153;52.316;21.166;2023-08-24T10:57:36;100502.97;;;34.20;29.28
34124;BME280;13153;52.316;21.166;2023-08-24T11:00:10;100508.09;;;34.25;29.64
34124;BME280;13153;52.316;21.166;2023-08-24T11:02:50;100499.69;;;34.28;30.39
34124;BME280;13153;52.316;21.166;2023-08-24T11:05:29;100503.41;;;34.27;30.24
34124;BME280;13153;52.316;21.166;2023-08-24T11:08:04;100499.16;;;34.23;29.42
34124;BME280;13153;52.316;21.166;2023-08-24T11:13:09;100491.25;;;34.18;29.86
34124;BME280;13153;52.316;21.166;2023-08-24T11:15:45;100489.94;;;34.11;29.45
34124;BME280;13153;52.316;21.166;2023-08-24T11:18:20;100495.97;;;34.03;29.68
34124;BME280;13153;52.316;21.166;2023-08-24T11:20:54;100492.69;;;33.98;30.17
34124;BME280;13153;52.316;21.166;2023-08-24T11:23:22;100493.66;;;33.97;30.08
34124;BME280;13153;52.316;21.166;2023-08-24T11:25:54;100486.75;;;33.92;29.34
34124;BME280;13153;52.316;21.166;2023-08-24T11:28:30;100494.28;;;33.88;29.35
34124;BME280;13153;52.316;21.166;2023-08-24T11:30:58;100487.75;;;33.91;29.87
34124;BME280;13153;52.316;21.166;2023-08-24T11:33:32;100487.31;;;33.97;30.71
34124;BME280;13153;52.316;21.166;2023-08-24T11:36:02;100480.78;;;33.99;29.54
34124;BME280;13153;52.316;21.166;2023-08-24T11:38:37;100480.78;;;33.99;30.27
34124;BME280;13153;52.316;21.166;2023-08-24T11:41:19;100475.53;;;33.96;30.20
34124;BME280;13153;52.316;21.166;2023-08-24T11:43:49;100473.88;;;33.94;30.70
34124;BME280;13153;52.316;21.166;2023-08-24T11:46:23;100472.75;;;33.84;30.11
34124;BME280;13153;52.316;21.166;2023-08-24T11:48:49;100486.03;;;33.75;29.87
34124;BME280;13153;52.316;21.166;2023-08-24T11:51:15;100479.13;;;33.70;30.02
34124;BME280;13153;52.316;21.166;2023-08-24T11:53:43;100469.59;;;33.63;30.65
34124;BME280;13153;52.316;21.166;2023-08-24T11:56:14;100470.03;;;33.57;30.41
34124;BME280;13153;52.316;21.166;2023-08-24T11:58:44;100480.72;;;33.47;31.64
34124;BME280;13153;52.316;21.166;2023-08-24T12:01:13;100475.19;;;33.34;31.78
34124;BME280;13153;52.316;21.166;2023-08-24T12:03:39;100474.13;;;33.23;31.59
34124;BME280;13153;52.316;21.166;2023-08-24T12:06:14;100472.97;;;33.12;31.43
34124;BME280;13153;52.316;21.166;2023-08-24T12:08:45;100471.72;;;33.04;32.37
34124;BME280;13153;52.316;21.166;2023-08-24T12:11:21;100471.69;;;32.91;32.18
34124;BME280;13153;52.316;21.166;2023-08-24T12:13:53;100465.06;;;32.81;33.18
34124;BME280;13153;52.316;21.166;2023-08-24T12:16:21;100463.75;;;32.72;32.75
34124;BME280;13153;52.316;21.166;2023-08-24T12:18:53;100455.00;;;32.67;33.27
34124;BME280;13153;52.316;21.166;2023-08-24T12:21:21;100454.31;;;32.64;33.79
34124;BME280;13153;52.316;21.166;2023-08-24T12:24:04;100449.28;;;32.58;33.81
34124;BME280;13153;52.316;21.166;2023-08-24T12:26:35;100456.66;;;32.56;34.34
34124;BME280;13153;52.316;21.166;2023-08-24T12:29:08;100454.22;;;32.51;34.10
34124;BME280;13153;52.316;21.166;2023-08-24T12:31:36;100456.28;;;32.47;34.70
34124;BME280;13153;52.316;21.166;2023-08-24T12:34:07;100443.44;;;32.49;33.94
34124;BME280;13153;52.316;21.166;2023-08-24T12:36:37;100440.69;;;32.49;33.20
34124;BME280;13153;52.316;21.166;2023-08-24T12:39:05;100437.69;;;32.40;32.96
34124;BME280;13153;52.316;21.166;2023-08-24T12:41:32;100438.75;;;32.37;33.68
34124;BME280;13153;52.316;21.166;2023-08-24T12:43:58;100436.13;;;32.36;33.21
34124;BME280;13153;52.316;21.166;2023-08-24T12:46:25;100442.44;;;32.36;33.62
34124;BME280;13153;52.316;21.166;2023-08-24T12:48:51;100434.88;;;32.41;33.03
34124;BME280;13153;52.316;21.166;2023-08-24T12:51:17;100434.78;;;32.43;33.24
34124;BME280;13153;52.316;21.166;2023-08-24T12:53:43;100438.47;;;32.42;32.66
34124;BME280;13153;52.316;21.166;2023-08-24T12:56:09;100437.41;;;32.44;32.66
34124;BME280;13153;52.316;21.166;2023-08-24T12:58:34;100432.72;;;32.46;32.54
34124;BME280;13153;52.316;21.166;2023-08-24T13:01:01;100431.66;;;32.49;32.98